sensor_id;sensor_type;location;lat;lon;timestamp;P1;durP1;ratioP1;P2;durP2;ratioP2
20729;SDS011;10526;50.850;12.928;2022-10-19T00:04:10;60.47;;;23.23;;
20729;SDS011;10526;50.850;12.928;2022-10-19T00:08:32;54.35;;;21.85;;
20729;SDS011;10526;50.850;12.928;2022-10-19T00:12:54;65.53;;;25.85;;
20729;SDS011;10526;50.850;12.928;2022-10-19T00:17:16;54.50;;;22.45;;
20729;SDS011;10526;50.850;12.928;2022-10-19T00:21:38;46.75;;;21.08;;
20729;SDS011;10526;50.850;12.928;2022-10-19T00:26:01;48.15;;;20.55;;
20729;SDS011;10526;50.850;12.928;2022-10-19T00:30:23;47.30;;;20.42;;
20729;SDS011;10526;50.850;12.928;2022-10-19T00:34:45;45.08;;;19.52;;
20729;SDS011;10526;50.850;12.928;2022-10-19T00:39:09;39.65;;;17.45;;
20729;SDS011;10526;50.850;12.928;2022-10-19T00:48:33;42.13;;;17.38;;
20729;SDS011;10526;50.850;12.928;2022-10-19T00:52:55;41.45;;;15.15;;
20729;SDS011;10526;50.850;12.928;2022-10-19T00:57:17;36.47;;;14.80;;
20729;SDS011;10526;50.850;12.928;2022-10-19T01:01:39;31.38;;;13.98;;
20729;SDS011;10526;50.850;12.928;2022-10-19T01:06:04;35.45;;;14.80;;
20729;SDS011;10526;50.850;12.928;2022-10-19T01:10:30;32.58;;;14.93;;
20729;SDS011;10526;50.850;12.928;2022-10-19T01:20:27;34.78;;;13.50;;
20729;SDS011;10526;50.850;12.928;2022-10-19T01:30:16;28.83;;;14.20;;
20729;SDS011;10526;50.850;12.928;2022-10-19T01:34:51;41.03;;;14.45;;
20729;SDS011;10526;50.850;12.928;2022-10-19T01:48:37;29.17;;;13.55;;
20729;SDS011;10526;50.850;12.928;2022-10-19T01:53:05;24.25;;;13.02;;
20729;SDS011;10526;50.850;12.928;2022-10-19T01:57:34;29.58;;;13.52;;
20729;SDS011;10526;50.850;12.928;2022-10-19T02:02:06;31.60;;;14.57;;
20729;SDS011;10526;50.850;12.928;2022-10-19T02:06:30;29.52;;;14.65;;
20729;SDS011;10526;50.850;12.928;2022-10-19T02:10:52;25.73;;;13.60;;
20729;SDS011;10526;50.850;12.928;2022-10-19T02:15:18;30.65;;;14.50;;
20729;SDS011;10526;50.850;12.928;2022-10-19T02:19:43;34.08;;;15.02;;
20729;SDS011;10526;50.850;12.928;2022-10-19T02:24:06;35.50;;;15.57;;
20729;SDS011;10526;50.850;12.928;2022-10-19T02:28:28;34.45;;;15.57;;
20729;SDS011;10526;50.850;12.928;2022-10-19T02:32:54;40.15;;;16.05;;
20729;SDS011;10526;50.850;12.928;2022-10-19T02:37:16;35.85;;;16.27;;
20729;SDS011;10526;50.850;12.928;2022-10-19T02:46:17;36.25;;;15.95;;
20729;SDS011;10526;50.850;12.928;2022-10-19T02:50:55;40.40;;;18.00;;
20729;SDS011;10526;50.850;12.928;2022-10-19T02:55:17;32.47;;;16.05;;
20729;SDS011;10526;50.850;12.928;2022-10-19T02:59:39;34.97;;;17.95;;
20729;SDS011;10526;50.850;12.928;2022-10-19T03:04:01;37.88;;;15.82;;
20729;SDS011;10526;50.850;12.928;2022-10-19T03:08:23;36.20;;;16.60;;
20729;SDS011;10526;50.850;12.928;2022-10-19T03:12:45;35.38;;;16.17;;
20729;SDS011;10526;50.850;12.928;2022-10-19T03:17:07;40.10;;;16.58;;
20729;SDS011;10526;50.850;12.928;2022-10-19T03:21:29;39.35;;;16.60;;
20729;SDS011;10526;50.850;12.928;2022-10-19T03:25:51;37.60;;;17.75;;
20729;SDS011;10526;50.850;12.928;2022-10-19T03:30:13;42.95;;;19.85;;
20729;SDS011;10526;50.850;12.928;2022-10-19T03:34:35;42.67;;;20.30;;
20729;SDS011;10526;50.850;12.928;2022-10-19T03:38:58;39.40;;;18.45;;
20729;SDS011;10526;50.850;12.928;2022-10-19T03:43:23;42.67;;;20.35;;
20729;SDS011;10526;50.850;12.928;2022-10-19T03:47:49;45.47;;;20.48;;
20729;SDS011;10526;50.850;12.928;2022-10-19T03:52:12;50.88;;;20.65;;
20729;SDS011;10526;50.850;12.928;2022-10-19T03:56:34;48.35;;;20.13;;
20729;SDS011;10526;50.850;12.928;2022-10-19T04:00:56;51.55;;;21.27;;
20729;SDS011;10526;50.850;12.928;2022-10-19T04:05:18;47.47;;;22.58;;
20729;SDS011;10526;50.850;12.928;2022-10-19T04:09:40;54.40;;;24.15;;
20729;SDS011;10526;50.850;12.928;2022-10-19T04:14:02;52.25;;;23.60;;
20729;SDS011;10526;50.850;12.928;2022-10-19T04:18:25;53.72;;;24.75;;
20729;SDS011;10526;50.850;12.928;2022-10-19T04:22:47;58.08;;;24.33;;
20729;SDS011;10526;50.850;12.928;2022-10-19T04:27:09;59.63;;;24.65;;
20729;SDS011;10526;50.850;12.928;2022-10-19T04:31:30;49.03;;;22.73;;
20729;SDS011;10526;50.850;12.928;2022-10-19T04:35:59;48.55;;;22.20;;
20729;SDS011;10526;50.850;12.928;2022-10-19T04:40:30;51.20;;;23.27;;
20729;SDS011;10526;50.850;12.928;2022-10-19T04:44:56;39.92;;;20.77;;
20729;SDS011;10526;50.850;12.928;2022-10-19T04:49:18;44.45;;;21.90;;
20729;SDS011;10526;50.850;12.928;2022-10-19T04:53:41;43.08;;;20.05;;
20729;SDS011;10526;50.850;12.928;2022-10-19T04:58:04;45.17;;;19.58;;
20729;SDS011;10526;50.850;12.928;2022-10-19T05:02:26;43.85;;;18.73;;
20729;SDS011;10526;50.850;12.928;2022-10-19T05:06:48;38.15;;;18.75;;
20729;SDS011;10526;50.850;12.928;2022-10-19T05:11:10;43.25;;;18.52;;
20729;SDS011;10526;50.850;12.928;2022-10-19T05:15:34;40.45;;;17.42;;
20729;SDS011;10526;50.850;12.928;2022-10-19T05:19:56;46.53;;;18.50;;
20729;SDS011;10526;50.850;12.928;2022-10-19T05:24:18;42.25;;;17.92;;
20729;SDS011;10526;50.850;12.928;2022-10-19T05:28:40;45.58;;;18.33;;
20729;SDS011;10526;50.850;12.928;2022-10-19T05:33:02;45.13;;;16.45;;
20729;SDS011;10526;50.850;12.928;2022-10-19T05:37:24;45.38;;;16.58;;
20729;SDS011;10526;50.850;12.928;2022-10-19T05:41:46;34.15;;;16.58;;
20729;SDS011;10526;50.850;12.928;2022-10-19T05:46:13;39.42;;;17.13;;
20729;SDS011;10526;50.850;12.928;2022-10-19T05:50:39;34.60;;;16.25;;
20729;SDS011;10526;50.850;12.928;2022-10-19T05:55:01;44.55;;;18.63;;
20729;SDS011;10526;50.850;12.928;2022-10-19T05:59:23;58.65;;;24.45;;
20729;SDS011;10526;50.850;12.928;2022-10-19T06:03:46;49.03;;;22.73;;
20729;SDS011;10526;50.850;12.928;2022-10-19T06:08:12;32.50;;;15.55;;
20729;SDS011;10526;50.850;12.928;2022-10-19T06:12:34;45.22;;;19.50;;
20729;SDS011;10526;50.850;12.928;2022-10-19T06:16:56;31.58;;;14.27;;
20729;SDS011;10526;50.850;12.928;2022-10-19T06:21:19;39.38;;;17.92;;
20729;SDS011;10526;50.850;12.928;2022-10-19T06:25:43;37.42;;;14.82;;
20729;SDS011;10526;50.850;12.928;2022-10-19T06:30:05;25.65;;;10.43;;
20729;SDS011;10526;50.850;12.928;2022-10-19T06:34:28;21.45;;;10.30;;
20729;SDS011;10526;50.850;12.928;2022-10-19T06:38:50;34.95;;;12.55;;
20729;SDS011;10526;50.850;12.928;2022-10-19T06:43:13;31.25;;;11.82;;
20729;SDS011;10526;50.850;12.928;2022-10-19T06:47:35;22.08;;;8.65;;
20729;SDS011;10526;50.850;12.928;2022-10-19T06:51:58;28.98;;;9.68;;
20729;SDS011;10526;50.850;12.928;2022-10-19T06:56:20;23.95;;;8.25;;
20729;SDS011;10526;50.850;12.928;2022-10-19T07:00:44;19.77;;;7.65;;
20729;SDS011;10526;50.850;12.928;2022-10-19T07:05:14;16.70;;;7.57;;
20729;SDS011;10526;50.850;12.928;2022-10-19T07:09:36;22.05;;;7.85;;
20729;SDS011;10526;50.850;12.928;2022-10-19T07:13:58;24.05;;;7.78;;
20729;SDS011;10526;50.850;12.928;2022-10-19T07:18:20;17.27;;;5.72;;
20729;SDS011;10526;50.850;12.928;2022-10-19T07:22:42;22.92;;;6.78;;
20729;SDS011;10526;50.850;12.928;2022-10-19T07:27:04;18.92;;;5.18;;
20729;SDS011;10526;50.850;12.928;2022-10-19T07:31:26;18.25;;;5.40;;
20729;SDS011;10526;50.850;12.928;2022-10-19T07:35:49;17.70;;;5.50;;
20729;SDS011;10526;50.850;12.928;2022-10-19T07:40:18;15.32;;;5.05;;
20729;SDS011;10526;50.850;12.928;2022-10-19T07:44:40;17.08;;;4.80;;
20729;SDS011;10526;50.850;12.928;2022-10-19T07:49:03;13.70;;;4.75;;
20729;SDS011;10526;50.850;12.928;2022-10-19T07:53:33;14.80;;;5.03;;
20729;SDS011;10526;50.850;12.928;2022-10-19T07:57:56;11.98;;;3.75;;
20729;SDS011;10526;50.850;12.928;2022-10-19T08:02:21;12.98;;;3.50;;
20729;SDS011;10526;50.850;12.928;2022-10-19T08:06:59;16.52;;;3.72;;
20729;SDS011;10526;50.850;12.928;2022-10-19T08:11:25;13.95;;;3.45;;
20729;SDS011;10526;50.850;12.928;2022-10-19T08:15:50;11.77;;;3.08;;
20729;SDS011;10526;50.850;12.928;2022-10-19T08:20:12;13.60;;;3.45;;
20729;SDS011;10526;50.850;12.928;2022-10-19T08:24:34;21.33;;;4.43;;
20729;SDS011;10526;50.850;12.928;2022-10-19T08:29:00;13.70;;;4.07;;
20729;SDS011;10526;50.850;12.928;2022-10-19T08:33:34;9.63;;;2.67;;
20729;SDS011;10526;50.850;12.928;2022-10-19T08:37:56;12.77;;;3.85;;
20729;SDS011;10526;50.850;12.928;2022-10-19T08:42:21;13.90;;;3.22;;
20729;SDS011;10526;50.850;12.928;2022-10-19T08:51:53;12.73;;;3.33;;
20729;SDS011;10526;50.850;12.928;2022-10-19T08:56:27;11.02;;;2.70;;
20729;SDS011;10526;50.850;12.928;2022-10-19T09:19:23;11.20;;;2.47;;
20729;SDS011;10526;50.850;12.928;2022-10-19T09:33:33;8.27;;;2.58;;
20729;SDS011;10526;50.850;12.928;2022-10-19T09:37:58;8.10;;;2.03;;
20729;SDS011;10526;50.850;12.928;2022-10-19T09:42:25;9.35;;;2.28;;
20729;SDS011;10526;50.850;12.928;2022-10-19T09:47:00;6.15;;;2.15;;
20729;SDS011;10526;50.850;12.928;2022-10-19T09:51:39;7.40;;;2.03;;
20729;SDS011;10526;50.850;12.928;2022-10-19T09:56:23;11.13;;;2.03;;
20729;SDS011;10526;50.850;12.928;2022-10-19T10:00:48;8.43;;;2.25;;
20729;SDS011;10526;50.850;12.928;2022-10-19T10:05:15;9.75;;;1.90;;
20729;SDS011;10526;50.850;12.928;2022-10-19T10:09:38;3.85;;;1.30;;
20729;SDS011;10526;50.850;12.928;2022-10-19T10:14:03;7.35;;;1.80;;
20729;SDS011;10526;50.850;12.928;2022-10-19T10:18:48;9.57;;;2.03;;
20729;SDS011;10526;50.850;12.928;2022-10-19T10:23:35;4.68;;;1.23;;
20729;SDS011;10526;50.850;12.928;2022-10-19T10:28:02;6.45;;;1.75;;
20729;SDS011;10526;50.850;12.928;2022-10-19T10:32:47;6.05;;;1.33;;
20729;SDS011;10526;50.850;12.928;2022-10-19T10:37:19;6.85;;;2.03;;
20729;SDS011;10526;50.850;12.928;2022-10-19T10:42:07;6.85;;;1.27;;
20729;SDS011;10526;50.850;12.928;2022-10-19T10:46:43;6.32;;;2.17;;
20729;SDS011;10526;50.850;12.928;2022-10-19T10:56:21;7.40;;;1.60;;
20729;SDS011;10526;50.850;12.928;2022-10-19T11:00:46;5.35;;;1.70;;
20729;SDS011;10526;50.850;12.928;2022-10-19T11:05:12;7.88;;;1.92;;
20729;SDS011;10526;50.850;12.928;2022-10-19T11:09:59;10.45;;;1.70;;
20729;SDS011;10526;50.850;12.928;2022-10-19T11:14:47;7.57;;;1.77;;
20729;SDS011;10526;50.850;12.928;2022-10-19T11:23:53;5.38;;;1.83;;
20729;SDS011;10526;50.850;12.928;2022-10-19T12:20:06;5.35;;;1.60;;
20729;SDS011;10526;50.850;12.928;2022-10-19T12:24:40;4.45;;;1.30;;
20729;SDS011;10526;50.850;12.928;2022-10-19T12:29:03;4.95;;;1.25;;
20729;SDS011;10526;50.850;12.928;2022-10-19T12:33:36;6.03;;;1.30;;
20729;SDS011;10526;50.850;12.928;2022-10-19T12:38:34;6.85;;;1.50;;
20729;SDS011;10526;50.850;12.928;2022-10-19T12:52:44;1.88;;;1.15;;
20729;SDS011;10526;50.850;12.928;2022-10-19T12:57:28;5.68;;;1.30;;
20729;SDS011;10526;50.850;12.928;2022-10-19T13:01:50;5.97;;;1.50;;
20729;SDS011;10526;50.850;12.928;2022-10-19T13:10:53;2.78;;;1.17;;
20729;SDS011;10526;50.850;12.928;2022-10-19T13:24:35;6.00;;;1.35;;
20729;SDS011;10526;50.850;12.928;2022-10-19T13:28:58;6.15;;;1.48;;
20729;SDS011;10526;50.850;12.928;2022-10-19T13:38:35;5.07;;;1.40;;
20729;SDS011;10526;50.850;12.928;2022-10-19T13:42:41;4.85;;;1.27;;
20729;SDS011;10526;50.850;12.928;2022-10-19T13:47:15;4.43;;;1.52;;
20729;SDS011;10526;50.850;12.928;2022-10-19T14:02:37;4.60;;;1.27;;
20729;SDS011;10526;50.850;12.928;2022-10-19T14:07:31;3.50;;;1.35;;
20729;SDS011;10526;50.850;12.928;2022-10-19T14:12:17;3.05;;;1.38;;
20729;SDS011;10526;50.850;12.928;2022-10-19T14:21:31;4.03;;;1.30;;
20729;SDS011;10526;50.850;12.928;2022-10-19T14:26:01;3.25;;;1.40;;
20729;SDS011;10526;50.850;12.928;2022-10-19T14:30:36;4.55;;;1.77;;
20729;SDS011;10526;50.850;12.928;2022-10-19T14:35:12;5.22;;;1.42;;
20729;SDS011;10526;50.850;12.928;2022-10-19T14:48:58;4.53;;;1.30;;
20729;SDS011;10526;50.850;12.928;2022-10-19T14:53:32;6.07;;;1.90;;
20729;SDS011;10526;50.850;12.928;2022-10-19T14:57:59;8.25;;;1.70;;
20729;SDS011;10526;50.850;12.928;2022-10-19T15:07:12;6.88;;;1.75;;
20729;SDS011;10526;50.850;12.928;2022-10-19T15:11:44;9.68;;;2.40;;
20729;SDS011;10526;50.850;12.928;2022-10-19T15:16:54;12.18;;;3.13;;
20729;SDS011;10526;50.850;12.928;2022-10-19T15:21:19;7.45;;;1.92;;
20729;SDS011;10526;50.850;12.928;2022-10-19T15:25:41;6.57;;;1.80;;
20729;SDS011;10526;50.850;12.928;2022-10-19T15:30:05;14.90;;;2.97;;
20729;SDS011;10526;50.850;12.928;2022-10-19T15:34:52;6.03;;;1.88;;
20729;SDS011;10526;50.850;12.928;2022-10-19T15:39:17;8.25;;;2.03;;
20729;SDS011;10526;50.850;12.928;2022-10-19T15:43:59;6.90;;;1.90;;
20729;SDS011;10526;50.850;12.928;2022-10-19T15:48:25;7.25;;;2.00;;
20729;SDS011;10526;50.850;12.928;2022-10-19T15:52:49;17.35;;;4.97;;
20729;SDS011;10526;50.850;12.928;2022-10-19T16:01:57;26.40;;;12.95;;
20729;SDS011;10526;50.850;12.928;2022-10-19T16:06:20;7.97;;;2.30;;
20729;SDS011;10526;50.850;12.928;2022-10-19T16:10:46;11.05;;;2.50;;
20729;SDS011;10526;50.850;12.928;2022-10-19T16:15:11;7.25;;;2.20;;
20729;SDS011;10526;50.850;12.928;2022-10-19T16:19:43;8.82;;;2.50;;
20729;SDS011;10526;50.850;12.928;2022-10-19T16:24:05;6.43;;;1.80;;
20729;SDS011;10526;50.850;12.928;2022-10-19T16:28:27;11.13;;;2.08;;
20729;SDS011;10526;50.850;12.928;2022-10-19T16:32:49;8.52;;;1.50;;
20729;SDS011;10526;50.850;12.928;2022-10-19T16:37:11;9.98;;;3.05;;
20729;SDS011;10526;50.850;12.928;2022-10-19T16:41:33;4.07;;;1.42;;
20729;SDS011;10526;50.850;12.928;2022-10-19T16:45:55;6.35;;;1.77;;
20729;SDS011;10526;50.850;12.928;2022-10-19T16:50:18;8.35;;;1.77;;
20729;SDS011;10526;50.850;12.928;2022-10-19T16:54:39;5.50;;;1.60;;
20729;SDS011;10526;50.850;12.928;2022-10-19T16:59:03;7.50;;;1.50;;
20729;SDS011;10526;50.850;12.928;2022-10-19T17:03:29;3.72;;;1.67;;
20729;SDS011;10526;50.850;12.928;2022-10-19T17:07:51;7.43;;;1.98;;
20729;SDS011;10526;50.850;12.928;2022-10-19T17:12:13;6.25;;;2.47;;
20729;SDS011;10526;50.850;12.928;2022-10-19T17:16:35;6.18;;;1.73;;
20729;SDS011;10526;50.850;12.928;2022-10-19T17:25:52;5.60;;;1.85;;
20729;SDS011;10526;50.850;12.928;2022-10-19T17:30:14;4.80;;;1.60;;
20729;SDS011;10526;50.850;12.928;2022-10-19T17:34:36;8.75;;;1.90;;
20729;SDS011;10526;50.850;12.928;2022-10-19T17:38:59;5.38;;;1.77;;
20729;SDS011;10526;50.850;12.928;2022-10-19T17:43:25;9.25;;;2.08;;
20729;SDS011;10526;50.850;12.928;2022-10-19T17:47:47;7.38;;;1.70;;
20729;SDS011;10526;50.850;12.928;2022-10-19T17:52:09;4.63;;;2.05;;
20729;SDS011;10526;50.850;12.928;2022-10-19T17:56:31;5.85;;;1.98;;
20729;SDS011;10526;50.850;12.928;2022-10-19T18:00:54;8.60;;;2.50;;
20729;SDS011;10526;50.850;12.928;2022-10-19T18:05:17;7.47;;;3.47;;
20729;SDS011;10526;50.850;12.928;2022-10-19T18:09:39;9.13;;;3.00;;
20729;SDS011;10526;50.850;12.928;2022-10-19T18:14:01;9.70;;;3.22;;
20729;SDS011;10526;50.850;12.928;2022-10-19T18:18:24;8.82;;;3.72;;
20729;SDS011;10526;50.850;12.928;2022-10-19T18:22:46;10.52;;;3.53;;
20729;SDS011;10526;50.850;12.928;2022-10-19T18:27:09;8.65;;;3.30;;
20729;SDS011;10526;50.850;12.928;2022-10-19T18:31:32;12.07;;;4.00;;
20729;SDS011;10526;50.850;12.928;2022-10-19T18:35:57;12.40;;;3.40;;
20729;SDS011;10526;50.850;12.928;2022-10-19T18:40:19;11.40;;;3.50;;
20729;SDS011;10526;50.850;12.928;2022-10-19T18:44:42;8.75;;;3.75;;
20729;SDS011;10526;50.850;12.928;2022-10-19T18:49:05;12.32;;;3.80;;
20729;SDS011;10526;50.850;12.928;2022-10-19T18:53:28;10.13;;;3.80;;
20729;SDS011;10526;50.850;12.928;2022-10-19T18:57:51;10.25;;;4.20;;
20729;SDS011;10526;50.850;12.928;2022-10-19T19:02:13;11.85;;;5.30;;
20729;SDS011;10526;50.850;12.928;2022-10-19T19:06:42;10.68;;;5.07;;
20729;SDS011;10526;50.850;12.928;2022-10-19T19:11:15;10.65;;;5.22;;
20729;SDS011;10526;50.850;12.928;2022-10-19T19:15:54;10.52;;;5.55;;
20729;SDS011;10526;50.850;12.928;2022-10-19T19:20:20;12.20;;;5.72;;
20729;SDS011;10526;50.850;12.928;2022-10-19T19:24:42;12.20;;;5.50;;
20729;SDS011;10526;50.850;12.928;2022-10-19T19:29:04;14.23;;;5.57;;
20729;SDS011;10526;50.850;12.928;2022-10-19T19:33:25;13.35;;;4.38;;
20729;SDS011;10526;50.850;12.928;2022-10-19T19:37:47;11.02;;;4.18;;
20729;SDS011;10526;50.850;12.928;2022-10-19T19:42:09;10.05;;;4.25;;
20729;SDS011;10526;50.850;12.928;2022-10-19T19:46:31;8.65;;;4.05;;
20729;SDS011;10526;50.850;12.928;2022-10-19T19:50:53;12.30;;;4.72;;
20729;SDS011;10526;50.850;12.928;2022-10-19T19:55:15;9.98;;;4.55;;
20729;SDS011;10526;50.850;12.928;2022-10-19T19:59:38;12.13;;;4.72;;
20729;SDS011;10526;50.850;12.928;2022-10-19T20:04:00;10.10;;;4.57;;
20729;SDS011;10526;50.850;12.928;2022-10-19T20:08:27;10.48;;;4.13;;
20729;SDS011;10526;50.850;12.928;2022-10-19T20:12:50;7.95;;;3.65;;
20729;SDS011;10526;50.850;12.928;2022-10-19T20:17:11;12.65;;;3.90;;
20729;SDS011;10526;50.850;12.928;2022-10-19T20:21:33;10.88;;;3.78;;
20729;SDS011;10526;50.850;12.928;2022-10-19T20:25:56;9.20;;;3.67;;
20729;SDS011;10526;50.850;12.928;2022-10-19T20:30:18;10.10;;;4.03;;
20729;SDS011;10526;50.850;12.928;2022-10-19T20:34:39;12.82;;;4.28;;
20729;SDS011;10526;50.850;12.928;2022-10-19T20:39:02;9.73;;;4.03;;
20729;SDS011;10526;50.850;12.928;2022-10-19T20:43:24;9.65;;;4.32;;
20729;SDS011;10526;50.850;12.928;2022-10-19T20:47:46;14.88;;;6.22;;
20729;SDS011;10526;50.850;12.928;2022-10-19T20:52:07;14.52;;;5.07;;
20729;SDS011;10526;50.850;12.928;2022-10-19T20:56:31;12.75;;;5.00;;
20729;SDS011;10526;50.850;12.928;2022-10-19T21:01:02;12.70;;;4.65;;
20729;SDS011;10526;50.850;12.928;2022-10-19T21:05:36;9.05;;;4.07;;
20729;SDS011;10526;50.850;12.928;2022-10-19T21:09:58;16.13;;;4.10;;
20729;SDS011;10526;50.850;12.928;2022-10-19T21:14:22;16.15;;;4.25;;
20729;SDS011;10526;50.850;12.928;2022-10-19T21:18:48;10.43;;;3.78;;
20729;SDS011;10526;50.850;12.928;2022-10-19T21:23:11;9.70;;;3.70;;
20729;SDS011;10526;50.850;12.928;2022-10-19T21:27:33;8.90;;;3.30;;
20729;SDS011;10526;50.850;12.928;2022-10-19T21:31:55;6.75;;;2.60;;
20729;SDS011;10526;50.850;12.928;2022-10-19T21:36:18;6.60;;;2.90;;
20729;SDS011;10526;50.850;12.928;2022-10-19T21:40:41;8.30;;;3.28;;
20729;SDS011;10526;50.850;12.928;2022-10-19T21:45:03;8.48;;;3.15;;
20729;SDS011;10526;50.850;12.928;2022-10-19T21:49:46;6.47;;;3.33;;
20729;SDS011;10526;50.850;12.928;2022-10-19T21:54:10;9.88;;;3.75;;
20729;SDS011;10526;50.850;12.928;2022-10-19T21:58:47;9.35;;;3.80;;
20729;SDS011;10526;50.850;12.928;2022-10-19T22:03:12;12.25;;;3.80;;
20729;SDS011;10526;50.850;12.928;2022-10-19T22:07:39;10.88;;;3.92;;
20729;SDS011;10526;50.850;12.928;2022-10-19T22:12:01;7.85;;;3.63;;
20729;SDS011;10526;50.850;12.928;2022-10-19T22:16:24;11.15;;;4.45;;
20729;SDS011;10526;50.850;12.928;2022-10-19T22:20:47;12.02;;;5.15;;
20729;SDS011;10526;50.850;12.928;2022-10-19T22:25:09;11.73;;;4.80;;
20729;SDS011;10526;50.850;12.928;2022-10-19T22:29:31;11.27;;;4.85;;
20729;SDS011;10526;50.850;12.928;2022-10-19T22:33:53;15.80;;;5.03;;
20729;SDS011;10526;50.850;12.928;2022-10-19T22:38:15;12.65;;;5.55;;
20729;SDS011;10526;50.850;12.928;2022-10-19T22:42:37;13.68;;;6.07;;
20729;SDS011;10526;50.850;12.928;2022-10-19T22:46:59;16.00;;;6.20;;
20729;SDS011;10526;50.850;12.928;2022-10-19T22:51:21;14.10;;;5.30;;
20729;SDS011;10526;50.850;12.928;2022-10-19T22:55:43;12.57;;;6.28;;
20729;SDS011;10526;50.850;12.928;2022-10-19T23:00:05;14.27;;;5.88;;
20729;SDS011;10526;50.850;12.928;2022-10-19T23:04:28;18.05;;;5.78;;
20729;SDS011;10526;50.850;12.928;2022-10-19T23:08:50;18.65;;;6.40;;
20729;SDS011;10526;50.850;12.928;2022-10-19T23:13:14;18.33;;;6.82;;
20729;SDS011;10526;50.850;12.928;2022-10-19T23:17:35;19.88;;;7.00;;
20729;SDS011;10526;50.850;12.928;2022-10-19T23:21:57;17.52;;;6.65;;
20729;SDS011;10526;50.850;12.928;2022-10-19T23:26:20;13.93;;;7.03;;
20729;SDS011;10526;50.850;12.928;2022-10-19T23:30:42;14.27;;;6.93;;
20729;SDS011;10526;50.850;12.928;2022-10-19T23:35:04;16.08;;;6.90;;
20729;SDS011;10526;50.850;12.928;2022-10-19T23:39:27;14.77;;;7.00;;
20729;SDS011;10526;50.850;12.928;2022-10-19T23:43:49;16.55;;;8.90;;
20729;SDS011;10526;50.850;12.928;2022-10-19T23:48:11;16.60;;;8.00;;
20729;SDS011;10526;50.850;12.928;2022-10-19T23:52:33;16.63;;;7.80;;
20729;SDS011;10526;50.850;12.928;2022-10-19T23:56:55;18.02;;;7.90;;
